sensor_id;sensor_type;location;lat;lon;timestamp;pressure;altitude;pressure_sealevel;temperature;humidity
23223;BME280;11780;13.904;100.620;2023-07-13T00:01:40;100937.34;;;32.01;61.52
23223;BME280;11780;13.904;100.620;2023-07-13T00:04:10;100940.13;;;32.01;61.18
23223;BME280;11780;13.904;100.620;2023-07-13T00:06:41;100951.19;;;32.01;61.24
23223;BME280;11780;13.904;100.620;2023-07-13T00:09:16;100944.69;;;31.97;60.82
23223;BME280;11780;13.904;100.620;2023-07-13T00:11:51;100955.78;;;31.97;61.62
23223;BME280;11780;13.904;100.620;2023-07-13T00:14:24;100950.72;;;31.99;62.12
23223;BME280;11780;13.904;100.620;2023-07-13T00:16:55;100955.59;;;32.02;62.06
23223;BME280;11780;13.904;100.620;2023-07-13T00:19:26;100962.25;;;32.01;61.80
23223;BME280;11780;13.904;100.620;2023-07-13T00:21:57;100969.59;;;32.06;61.71
23223;BME280;11780;13.904;100.620;2023-07-13T00:24:27;100973.31;;;32.01;61.25
23223;BME280;11780;13.904;100.620;2023-07-13T00:26:57;100975.13;;;32.06;61.31
23223;BME280;11780;13.904;100.620;2023-07-13T00:29:27;100976.75;;;32.07;60.91
23223;BME280;11780;13.904;100.620;2023-07-13T00:31:59;100974.00;;;32.07;60.55
23223;BME280;11780;13.904;100.620;2023-07-13T00:34:29;100978.38;;;32.08;60.63
23223;BME280;11780;13.904;100.620;2023-07-13T00:37:00;100983.59;;;32.09;60.26
23223;BME280;11780;13.904;100.620;2023-07-13T00:39:30;100988.78;;;32.11;60.37
23223;BME280;11780;13.904;100.620;2023-07-13T00:42:02;100990.25;;;32.08;61.02
23223;BME280;11780;13.904;100.620;2023-07-13T00:44:33;100997.56;;;32.13;61.18
23223;BME280;11780;13.904;100.620;2023-07-13T00:47:04;100991.72;;;32.06;61.74
23223;BME280;11780;13.904;100.620;2023-07-13T00:49:35;101004.44;;;32.07;61.53
23223;BME280;11780;13.904;100.620;2023-07-13T00:52:08;101010.13;;;32.10;61.12
23223;BME280;11780;13.904;100.620;2023-07-13T00:54:45;101009.28;;;32.10;61.09
23223;BME280;11780;13.904;100.620;2023-07-13T00:57:18;101021.34;;;32.14;60.95
23223;BME280;11780;13.904;100.620;2023-07-13T00:59:58;101026.56;;;32.15;60.25
23223;BME280;11780;13.904;100.620;2023-07-13T01:02:30;101019.72;;;32.13;60.15
23223;BME280;11780;13.904;100.620;2023-07-13T01:05:00;101032.91;;;32.16;60.21
23223;BME280;11780;13.904;100.620;2023-07-13T01:07:31;101026.56;;;32.15;60.62
23223;BME280;11780;13.904;100.620;2023-07-13T01:10:02;101026.22;;;32.17;61.04
23223;BME280;11780;13.904;100.620;2023-07-13T01:12:32;101029.66;;;32.23;60.44
23223;BME280;11780;13.904;100.620;2023-07-13T01:15:04;101024.25;;;32.17;60.62
23223;BME280;11780;13.904;100.620;2023-07-13T01:17:34;101029.16;;;32.20;61.17
23223;BME280;11780;13.904;100.620;2023-07-13T01:20:06;101026.38;;;32.20;60.95
23223;BME280;11780;13.904;100.620;2023-07-13T01:22:38;101024.59;;;32.16;61.03
23223;BME280;11780;13.904;100.620;2023-07-13T01:25:08;101031.44;;;32.18;61.27
23223;BME280;11780;13.904;100.620;2023-07-13T01:27:39;101036.97;;;32.18;60.85
23223;BME280;11780;13.904;100.620;2023-07-13T01:30:11;101035.81;;;32.19;60.94
23223;BME280;11780;13.904;100.620;2023-07-13T01:32:42;101033.56;;;32.22;61.11
23223;BME280;11780;13.904;100.620;2023-07-13T01:35:12;101032.41;;;32.23;60.84
23223;BME280;11780;13.904;100.620;2023-07-13T01:37:43;101033.25;;;32.23;61.05
23223;BME280;11780;13.904;100.620;2023-07-13T01:40:15;101030.63;;;32.18;61.50
23223;BME280;11780;13.904;100.620;2023-07-13T01:42:46;101036.31;;;32.22;60.75
23223;BME280;11780;13.904;100.620;2023-07-13T01:45:20;101030.78;;;32.22;61.09
23223;BME280;11780;13.904;100.620;2023-07-13T01:47:51;101039.91;;;32.22;60.97
23223;BME280;11780;13.904;100.620;2023-07-13T01:50:21;101045.44;;;32.22;61.16
23223;BME280;11780;13.904;100.620;2023-07-13T01:52:54;101036.00;;;32.23;61.19
23223;BME280;11780;13.904;100.620;2023-07-13T01:55:24;101044.63;;;32.22;60.96
23223;BME280;11780;13.904;100.620;2023-07-13T01:57:55;101052.28;;;32.25;60.96
23223;BME280;11780;13.904;100.620;2023-07-13T02:00:26;101049.34;;;32.21;60.60
23223;BME280;11780;13.904;100.620;2023-07-13T02:02:56;101045.28;;;32.27;61.06
23223;BME280;11780;13.904;100.620;2023-07-13T02:05:27;101048.22;;;32.22;60.69
23223;BME280;11780;13.904;100.620;2023-07-13T02:07:57;101046.63;;;32.30;60.76
23223;BME280;11780;13.904;100.620;2023-07-13T02:10:30;101053.41;;;32.24;60.71
23223;BME280;11780;13.904;100.620;2023-07-13T02:13:01;101047.25;;;32.27;60.88
23223;BME280;11780;13.904;100.620;2023-07-13T02:15:31;101047.88;;;32.24;60.80
23223;BME280;11780;13.904;100.620;2023-07-13T02:18:01;101055.22;;;32.28;60.93
23223;BME280;11780;13.904;100.620;2023-07-13T02:20:33;101053.28;;;32.29;61.16
23223;BME280;11780;13.904;100.620;2023-07-13T02:23:03;101061.09;;;32.27;60.75
23223;BME280;11780;13.904;100.620;2023-07-13T02:25:36;101054.91;;;32.30;61.00
23223;BME280;11780;13.904;100.620;2023-07-13T02:28:08;101059.78;;;32.33;61.24
23223;BME280;11780;13.904;100.620;2023-07-13T02:30:38;101062.88;;;32.31;60.93
23223;BME280;11780;13.904;100.620;2023-07-13T02:33:08;101059.97;;;32.28;60.94
23223;BME280;11780;13.904;100.620;2023-07-13T02:35:39;101051.81;;;32.31;60.66
23223;BME280;11780;13.904;100.620;2023-07-13T02:38:09;101044.66;;;32.30;61.03
23223;BME280;11780;13.904;100.620;2023-07-13T02:40:39;101050.34;;;32.34;60.92
23223;BME280;11780;13.904;100.620;2023-07-13T02:43:09;101038.97;;;32.36;61.21
23223;BME280;11780;13.904;100.620;2023-07-13T02:45:43;101035.06;;;32.28;60.88
23223;BME280;11780;13.904;100.620;2023-07-13T02:48:14;101037.00;;;32.27;60.75
23223;BME280;11780;13.904;100.620;2023-07-13T02:50:45;101032.59;;;32.35;60.89
23223;BME280;11780;13.904;100.620;2023-07-13T02:53:15;101020.56;;;32.31;60.64
23223;BME280;11780;13.904;100.620;2023-07-13T02:55:45;101022.84;;;32.29;60.91
23223;BME280;11780;13.904;100.620;2023-07-13T02:58:16;101022.66;;;32.34;61.13
23223;BME280;11780;13.904;100.620;2023-07-13T03:00:48;101021.38;;;32.31;60.68
23223;BME280;11780;13.904;100.620;2023-07-13T03:03:20;101019.09;;;32.33;61.19
23223;BME280;11780;13.904;100.620;2023-07-13T03:05:57;101026.56;;;32.33;61.07
23223;BME280;11780;13.904;100.620;2023-07-13T03:08:34;101023.78;;;32.33;61.04
23223;BME280;11780;13.904;100.620;2023-07-13T03:11:10;101020.72;;;32.34;60.74
23223;BME280;11780;13.904;100.620;2023-07-13T03:13:42;101009.31;;;32.36;60.44
23223;BME280;11780;13.904;100.620;2023-07-13T03:16:14;101014.34;;;32.34;60.52
23223;BME280;11780;13.904;100.620;2023-07-13T03:18:49;101004.91;;;32.35;60.58
23223;BME280;11780;13.904;100.620;2023-07-13T03:21:19;100996.44;;;32.40;60.81
23223;BME280;11780;13.904;100.620;2023-07-13T03:23:50;100998.06;;;32.41;60.82
23223;BME280;11780;13.904;100.620;2023-07-13T03:26:20;100990.41;;;32.38;60.83
23223;BME280;11780;13.904;100.620;2023-07-13T03:28:51;100982.44;;;32.37;60.66
23223;BME280;11780;13.904;100.620;2023-07-13T03:31:26;100985.53;;;32.35;60.82
23223;BME280;11780;13.904;100.620;2023-07-13T03:33:58;100978.69;;;32.41;61.16
23223;BME280;11780;13.904;100.620;2023-07-13T03:36:31;100977.06;;;32.40;60.90
23223;BME280;11780;13.904;100.620;2023-07-13T03:39:05;100969.72;;;32.44;60.75
23223;BME280;11780;13.904;100.620;2023-07-13T03:41:49;100963.22;;;32.40;60.80
23223;BME280;11780;13.904;100.620;2023-07-13T03:44:20;100963.84;;;32.46;61.02
23223;BME280;11780;13.904;100.620;2023-07-13T03:46:54;100960.94;;;32.42;61.04
23223;BME280;11780;13.904;100.620;2023-07-13T03:49:24;100959.31;;;32.41;61.17
23223;BME280;11780;13.904;100.620;2023-07-13T03:51:55;100960.94;;;32.42;61.39
23223;BME280;11780;13.904;100.620;2023-07-13T03:54:25;100956.19;;;32.43;61.13
23223;BME280;11780;13.904;100.620;2023-07-13T03:56:55;100955.22;;;32.47;61.01
23223;BME280;11780;13.904;100.620;2023-07-13T03:59:26;100969.72;;;32.44;60.58
23223;BME280;11780;13.904;100.620;2023-07-13T04:01:57;100960.94;;;32.42;60.71
23223;BME280;11780;13.904;100.620;2023-07-13T04:04:27;100953.13;;;32.44;60.55
23223;BME280;11780;13.904;100.620;2023-07-13T04:06:58;100949.22;;;32.45;60.65
23223;BME280;11780;13.904;100.620;2023-07-13T04:09:28;100946.91;;;32.47;60.62
23223;BME280;11780;13.904;100.620;2023-07-13T04:11:58;100950.84;;;32.46;60.59
23223;BME280;11780;13.904;100.620;2023-07-13T04:14:28;100946.09;;;32.47;60.62
23223;BME280;11780;13.904;100.620;2023-07-13T04:16:59;100940.06;;;32.45;60.22
23223;BME280;11780;13.904;100.620;2023-07-13T04:19:29;100935.16;;;32.50;60.12
23223;BME280;11780;13.904;100.620;2023-07-13T04:22:01;100920.84;;;32.48;60.33
23223;BME280;11780;13.904;100.620;2023-07-13T04:24:31;100936.78;;;32.52;60.10
23223;BME280;11780;13.904;100.620;2023-07-13T04:27:01;100928.97;;;32.54;60.53
23223;BME280;11780;13.904;100.620;2023-07-13T04:29:32;100920.84;;;32.48;60.52
23223;BME280;11780;13.904;100.620;2023-07-13T04:32:03;100924.56;;;32.53;60.38
23223;BME280;11780;13.904;100.620;2023-07-13T04:34:33;100917.56;;;32.55;60.48
23223;BME280;11780;13.904;100.620;2023-07-13T04:37:04;100914.78;;;32.55;60.28
23223;BME280;11780;13.904;100.620;2023-07-13T04:39:35;100908.94;;;32.57;60.19
23223;BME280;11780;13.904;100.620;2023-07-13T04:42:06;100901.13;;;32.59;59.93
23223;BME280;11780;13.904;100.620;2023-07-13T04:44:36;100907.66;;;32.54;59.93
23223;BME280;11780;13.904;100.620;2023-07-13T04:47:06;100909.56;;;32.62;60.14
23223;BME280;11780;13.904;100.620;2023-07-13T04:49:36;100896.84;;;32.61;59.95
23223;BME280;11780;13.904;100.620;2023-07-13T04:52:07;100892.94;;;32.62;59.84
23223;BME280;11780;13.904;100.620;2023-07-13T04:54:38;100892.81;;;32.59;59.67
23223;BME280;11780;13.904;100.620;2023-07-13T04:57:08;100898.34;;;32.59;59.67
23223;BME280;11780;13.904;100.620;2023-07-13T04:59:38;100888.38;;;32.67;59.55
23223;BME280;11780;13.904;100.620;2023-07-13T05:02:09;100886.88;;;32.69;59.57
23223;BME280;11780;13.904;100.620;2023-07-13T05:04:39;100883.63;;;32.67;59.76
23223;BME280;11780;13.904;100.620;2023-07-13T05:07:10;100884.47;;;32.68;59.38
23223;BME280;11780;13.904;100.620;2023-07-13T05:09:40;100882.00;;;32.66;59.49
23223;BME280;11780;13.904;100.620;2023-07-13T05:12:11;100868.16;;;32.66;59.54
23223;BME280;11780;13.904;100.620;2023-07-13T05:14:41;100861.16;;;32.69;59.53
23223;BME280;11780;13.904;100.620;2023-07-13T05:17:11;100862.31;;;32.68;59.75
23223;BME280;11780;13.904;100.620;2023-07-13T05:19:41;100862.13;;;32.64;59.88
23223;BME280;11780;13.904;100.620;2023-07-13T05:22:11;100859.84;;;32.66;59.97
23223;BME280;11780;13.904;100.620;2023-07-13T05:24:42;100853.38;;;32.62;59.60
23223;BME280;11780;13.904;100.620;2023-07-13T05:27:12;100851.06;;;32.64;59.53
23223;BME280;11780;13.904;100.620;2023-07-13T05:29:42;100848.78;;;32.66;59.74
23223;BME280;11780;13.904;100.620;2023-07-13T05:32:13;100844.19;;;32.70;59.63
23223;BME280;11780;13.904;100.620;2023-07-13T05:34:43;100841.09;;;32.72;59.37
23223;BME280;11780;13.904;100.620;2023-07-13T05:37:13;100841.91;;;32.72;58.88
23223;BME280;11780;13.904;100.620;2023-07-13T05:39:46;100831.63;;;32.73;58.96
23223;BME280;11780;13.904;100.620;2023-07-13T05:42:16;100831.50;;;32.69;58.98
23223;BME280;11780;13.904;100.620;2023-07-13T05:44:46;100827.88;;;32.77;58.96
23223;BME280;11780;13.904;100.620;2023-07-13T05:47:16;100817.94;;;32.76;59.16
23223;BME280;11780;13.904;100.620;2023-07-13T05:49:47;100814.81;;;32.78;58.86
23223;BME280;11780;13.904;100.620;2023-07-13T05:52:17;100812.41;;;32.76;58.81
23223;BME280;11780;13.904;100.620;2023-07-13T05:54:47;100802.78;;;32.74;58.93
23223;BME280;11780;13.904;100.620;2023-07-13T05:57:17;100795.78;;;32.76;59.11
23223;BME280;11780;13.904;100.620;2023-07-13T05:59:47;100797.06;;;32.79;59.04
23223;BME280;11780;13.904;100.620;2023-07-13T06:02:18;100785.84;;;32.75;59.31
23223;BME280;11780;13.904;100.620;2023-07-13T06:04:48;100779.47;;;32.75;59.27
23223;BME280;11780;13.904;100.620;2023-07-13T06:07:19;100782.88;;;32.80;59.11
23223;BME280;11780;13.904;100.620;2023-07-13T06:09:49;100776.41;;;32.76;59.20
23223;BME280;11780;13.904;100.620;2023-07-13T06:12:20;100765.63;;;32.75;59.17
23223;BME280;11780;13.904;100.620;2023-07-13T06:14:50;100769.38;;;32.79;59.17
23223;BME280;11780;13.904;100.620;2023-07-13T06:17:21;100766.25;;;32.80;59.27
23223;BME280;11780;13.904;100.620;2023-07-13T06:19:51;100757.13;;;32.80;59.28
23223;BME280;11780;13.904;100.620;2023-07-13T06:22:21;100761.41;;;32.77;59.33
23223;BME280;11780;13.904;100.620;2023-07-13T06:24:52;100758.44;;;32.83;59.55
23223;BME280;11780;13.904;100.620;2023-07-13T06:27:22;100751.44;;;32.85;59.59
23223;BME280;11780;13.904;100.620;2023-07-13T06:29:55;100744.09;;;32.80;59.38
23223;BME280;11780;13.904;100.620;2023-07-13T06:32:26;100738.53;;;32.80;59.59
23223;BME280;11780;13.904;100.620;2023-07-13T06:34:56;100745.91;;;32.85;59.51
23223;BME280;11780;13.904;100.620;2023-07-13T06:37:27;100736.41;;;32.86;59.67
23223;BME280;11780;13.904;100.620;2023-07-13T06:39:57;100732.38;;;32.84;59.62
23223;BME280;11780;13.904;100.620;2023-07-13T06:42:28;100730.75;;;32.83;59.68
23223;BME280;11780;13.904;100.620;2023-07-13T06:44:58;100718.31;;;32.89;59.68
23223;BME280;11780;13.904;100.620;2023-07-13T06:47:28;100715.75;;;32.84;59.42
23223;BME280;11780;13.904;100.620;2023-07-13T06:50:00;100717.38;;;32.85;59.41
23223;BME280;11780;13.904;100.620;2023-07-13T06:52:32;100711.47;;;32.86;59.49
23223;BME280;11780;13.904;100.620;2023-07-13T06:55:03;100707.56;;;32.87;59.58
23223;BME280;11780;13.904;100.620;2023-07-13T06:57:33;100695.00;;;32.90;59.25
23223;BME280;11780;13.904;100.620;2023-07-13T07:00:04;100693.84;;;32.91;59.35
23223;BME280;11780;13.904;100.620;2023-07-13T07:02:36;100693.38;;;32.89;59.01
23223;BME280;11780;13.904;100.620;2023-07-13T07:05:06;100687.16;;;32.92;58.82
23223;BME280;11780;13.904;100.620;2023-07-13T07:07:37;100681.28;;;32.93;58.66
23223;BME280;11780;13.904;100.620;2023-07-13T07:10:07;100678.16;;;32.95;58.57
23223;BME280;11780;13.904;100.620;2023-07-13T07:12:38;100662.84;;;32.98;58.66
23223;BME280;11780;13.904;100.620;2023-07-13T07:15:08;100651.88;;;33.01;58.64
23223;BME280;11780;13.904;100.620;2023-07-13T07:17:39;100648.16;;;32.97;58.54
23223;BME280;11780;13.904;100.620;2023-07-13T07:20:10;100643.91;;;33.00;58.34
23223;BME280;11780;13.904;100.620;2023-07-13T07:22:40;100647.84;;;32.99;58.49
23223;BME280;11780;13.904;100.620;2023-07-13T07:25:11;100641.47;;;32.98;58.53
23223;BME280;11780;13.904;100.620;2023-07-13T07:27:42;100629.69;;;33.01;58.68
23223;BME280;11780;13.904;100.620;2023-07-13T07:30:16;100630.38;;;32.98;58.66
23223;BME280;11780;13.904;100.620;2023-07-13T07:32:49;100620.44;;;32.97;58.58
23223;BME280;11780;13.904;100.620;2023-07-13T07:35:24;100626.13;;;33.01;58.82
23223;BME280;11780;13.904;100.620;2023-07-13T07:37:57;100628.09;;;33.00;58.95
23223;BME280;11780;13.904;100.620;2023-07-13T07:40:27;100623.50;;;33.04;58.95
23223;BME280;11780;13.904;100.620;2023-07-13T07:43:00;100623.13;;;33.06;59.03
23223;BME280;11780;13.904;100.620;2023-07-13T07:45:30;100619.09;;;33.03;59.03
23223;BME280;11780;13.904;100.620;2023-07-13T07:48:01;100617.59;;;33.06;59.02
23223;BME280;11780;13.904;100.620;2023-07-13T07:50:32;100620.25;;;33.02;59.00
23223;BME280;11780;13.904;100.620;2023-07-13T07:53:03;100613.06;;;33.01;59.25
23223;BME280;11780;13.904;100.620;2023-07-13T07:55:38;100611.38;;;33.09;59.13
23223;BME280;11780;13.904;100.620;2023-07-13T07:58:28;100594.63;;;33.05;59.07
23223;BME280;11780;13.904;100.620;2023-07-13T08:01:07;100598.06;;;33.02;58.65
23223;BME280;11780;13.904;100.620;2023-07-13T08:03:41;100588.41;;;33.08;58.92
23223;BME280;11780;13.904;100.620;2023-07-13T08:06:16;100587.47;;;33.04;58.88
23223;BME280;11780;13.904;100.620;2023-07-13T08:09:06;100586.06;;;33.10;58.50
23223;BME280;11780;13.904;100.620;2023-07-13T08:11:38;100584.81;;;33.08;58.55
23223;BME280;11780;13.904;100.620;2023-07-13T08:14:11;100576.13;;;33.09;58.60
23223;BME280;11780;13.904;100.620;2023-07-13T08:16:42;100570.94;;;33.08;58.70
23223;BME280;11780;13.904;100.620;2023-07-13T08:19:13;100557.94;;;33.08;58.65
23223;BME280;11780;13.904;100.620;2023-07-13T08:21:43;100547.16;;;33.07;58.39
23223;BME280;11780;13.904;100.620;2023-07-13T08:24:14;100547.75;;;33.13;58.70
23223;BME280;11780;13.904;100.620;2023-07-13T08:26:45;100540.94;;;33.10;58.73
23223;BME280;11780;13.904;100.620;2023-07-13T08:29:15;100533.31;;;33.07;58.61
23223;BME280;11780;13.904;100.620;2023-07-13T08:31:46;100527.88;;;33.10;58.65
23223;BME280;11780;13.904;100.620;2023-07-13T08:34:16;100520.59;;;33.06;58.37
23223;BME280;11780;13.904;100.620;2023-07-13T08:36:46;100519.94;;;33.09;58.31
23223;BME280;11780;13.904;100.620;2023-07-13T08:39:16;100512.53;;;33.13;58.58
23223;BME280;11780;13.904;100.620;2023-07-13T08:41:52;100520.38;;;33.11;58.33
23223;BME280;11780;13.904;100.620;2023-07-13T08:44:36;100526.03;;;33.15;58.31
23223;BME280;11780;13.904;100.620;2023-07-13T08:47:10;100524.78;;;33.12;58.31
23223;BME280;11780;13.904;100.620;2023-07-13T08:49:43;100525.38;;;33.18;58.54
23223;BME280;11780;13.904;100.620;2023-07-13T08:55:09;100518.09;;;33.13;58.30
23223;BME280;11780;13.904;100.620;2023-07-13T09:00:52;100513.34;;;33.14;58.35
23223;BME280;11780;13.904;100.620;2023-07-13T09:03:29;100499.47;;;33.14;58.19
23223;BME280;11780;13.904;100.620;2023-07-13T09:06:02;100499.94;;;33.16;58.62
23223;BME280;11780;13.904;100.620;2023-07-13T09:08:55;100501.94;;;33.15;58.98
23223;BME280;11780;13.904;100.620;2023-07-13T09:17:20;100489.69;;;33.16;59.18
23223;BME280;11780;13.904;100.620;2023-07-13T09:19:59;100480.78;;;33.10;58.70
23223;BME280;11780;13.904;100.620;2023-07-13T09:22:34;100486.00;;;33.12;59.18
23223;BME280;11780;13.904;100.620;2023-07-13T09:28:05;100480.56;;;33.16;58.56
23223;BME280;11780;13.904;100.620;2023-07-13T09:33:45;100482.16;;;33.17;58.36
23223;BME280;11780;13.904;100.620;2023-07-13T09:36:29;100481.00;;;33.18;58.31
23223;BME280;11780;13.904;100.620;2023-07-13T09:39:41;100488.19;;;33.19;58.25
23223;BME280;11780;13.904;100.620;2023-07-13T09:42:20;100497.75;;;33.21;58.54
23223;BME280;11780;13.904;100.620;2023-07-13T09:47:30;100502.03;;;33.19;58.47
23223;BME280;11780;13.904;100.620;2023-07-13T09:50:02;100496.97;;;33.21;58.48
23223;BME280;11780;13.904;100.620;2023-07-13T09:52:47;100500.53;;;33.21;58.69
23223;BME280;11780;13.904;100.620;2023-07-13T09:55:38;100492.69;;;33.23;58.55
23223;BME280;11780;13.904;100.620;2023-07-13T09:58:13;100499.38;;;33.22;58.83
23223;BME280;11780;13.904;100.620;2023-07-13T10:00:57;100492.91;;;33.18;58.78
23223;BME280;11780;13.904;100.620;2023-07-13T10:03:34;100493.72;;;33.19;58.73
23223;BME280;11780;13.904;100.620;2023-07-13T10:06:16;100494.53;;;33.19;58.66
23223;BME280;11780;13.904;100.620;2023-07-13T10:08:48;100501.00;;;33.23;59.20
23223;BME280;11780;13.904;100.620;2023-07-13T10:11:25;100488.66;;;33.21;59.05
23223;BME280;11780;13.904;100.620;2023-07-13T10:16:31;100495.44;;;33.23;58.60
23223;BME280;11780;13.904;100.620;2023-07-13T10:19:07;100491.88;;;33.23;59.12
23223;BME280;11780;13.904;100.620;2023-07-13T10:24:53;100505.75;;;33.23;58.66
23223;BME280;11780;13.904;100.620;2023-07-13T10:27:35;100496.13;;;33.20;59.12
23223;BME280;11780;13.904;100.620;2023-07-13T10:30:25;100501.34;;;33.22;58.99
23223;BME280;11780;13.904;100.620;2023-07-13T10:33:03;100501.09;;;33.27;59.14
23223;BME280;11780;13.904;100.620;2023-07-13T10:35:36;100495.09;;;33.25;59.14
23223;BME280;11780;13.904;100.620;2023-07-13T10:38:12;100505.28;;;33.21;59.01
23223;BME280;11780;13.904;100.620;2023-07-13T10:41:09;100505.28;;;33.21;58.94
23223;BME280;11780;13.904;100.620;2023-07-13T10:43:51;100507.69;;;33.22;59.07
23223;BME280;11780;13.904;100.620;2023-07-13T10:46:25;100506.91;;;33.22;59.21
23223;BME280;11780;13.904;100.620;2023-07-13T10:49:02;100505.38;;;33.24;59.51
23223;BME280;11780;13.904;100.620;2023-07-13T10:51:36;100511.63;;;33.21;59.33
23223;BME280;11780;13.904;100.620;2023-07-13T10:54:17;100511.50;;;33.30;58.90
23223;BME280;11780;13.904;100.620;2023-07-13T10:56:52;100519.25;;;33.24;59.59
23223;BME280;11780;13.904;100.620;2023-07-13T10:59:27;100529.19;;;33.25;59.11
23223;BME280;11780;13.904;100.620;2023-07-13T11:02:22;100537.97;;;33.28;58.72
23223;BME280;11780;13.904;100.620;2023-07-13T11:04:54;100555.06;;;33.30;58.61
23223;BME280;11780;13.904;100.620;2023-07-13T11:07:31;100564.63;;;33.32;58.66
23223;BME280;11780;13.904;100.620;2023-07-13T11:10:47;100569.03;;;33.33;59.10
23223;BME280;11780;13.904;100.620;2023-07-13T11:24:50;100611.13;;;33.35;60.97
23223;BME280;11780;13.904;100.620;2023-07-13T11:33:09;100631.31;;;33.36;62.17
23223;BME280;11780;13.904;100.620;2023-07-13T11:35:51;100631.16;;;33.32;63.38
23223;BME280;11780;13.904;100.620;2023-07-13T11:41:22;100622.25;;;33.27;64.99
23223;BME280;11780;13.904;100.620;2023-07-13T11:44:02;100620.53;;;33.22;65.18
23223;BME280;11780;13.904;100.620;2023-07-13T11:46:34;100622.94;;;33.23;65.24
23223;BME280;11780;13.904;100.620;2023-07-13T11:49:06;100626.41;;;33.20;65.05
23223;BME280;11780;13.904;100.620;2023-07-13T11:51:36;100621.88;;;33.16;65.19
23223;BME280;11780;13.904;100.620;2023-07-13T11:54:29;100628.25;;;33.16;65.55
23223;BME280;11780;13.904;100.620;2023-07-13T11:59:51;100655.34;;;33.10;65.45
23223;BME280;11780;13.904;100.620;2023-07-13T12:02:30;100671.53;;;33.08;65.74
23223;BME280;11780;13.904;100.620;2023-07-13T12:05:03;100681.13;;;33.11;65.59
23223;BME280;11780;13.904;100.620;2023-07-13T12:07:36;100677.09;;;33.08;66.04
23223;BME280;11780;13.904;100.620;2023-07-13T12:10:28;100671.06;;;33.06;66.19
23223;BME280;11780;13.904;100.620;2023-07-13T12:13:03;100688.84;;;33.05;66.52
23223;BME280;11780;13.904;100.620;2023-07-13T12:15:43;100685.72;;;33.07;66.51
23223;BME280;11780;13.904;100.620;2023-07-13T12:18:18;100699.69;;;33.10;66.65
23223;BME280;11780;13.904;100.620;2023-07-13T12:20:50;100695.31;;;33.09;66.37
23223;BME280;11780;13.904;100.620;2023-07-13T12:23:28;100699.25;;;33.08;66.23
23223;BME280;11780;13.904;100.620;2023-07-13T12:26:01;100706.84;;;33.12;66.39
23223;BME280;11780;13.904;100.620;2023-07-13T12:28:38;100700.03;;;33.09;66.34
23223;BME280;11780;13.904;100.620;2023-07-13T12:31:24;100702.63;;;33.14;66.29
23223;BME280;11780;13.904;100.620;2023-07-13T12:34:06;100701.78;;;33.14;66.32
23223;BME280;11780;13.904;100.620;2023-07-13T12:36:40;100707.81;;;33.16;66.10
23223;BME280;11780;13.904;100.620;2023-07-13T12:51:25;100729.75;;;32.57;66.07
23223;BME280;11780;13.904;100.620;2023-07-13T12:54:05;100739.25;;;32.47;65.97
23223;BME280;11780;13.904;100.620;2023-07-13T12:56:35;100758.25;;;32.58;65.79
23223;BME280;11780;13.904;100.620;2023-07-13T12:59:06;100754.06;;;32.52;65.72
23223;BME280;11780;13.904;100.620;2023-07-13T13:01:41;100753.69;;;32.62;65.57
23223;BME280;11780;13.904;100.620;2023-07-13T13:04:12;100752.25;;;32.56;65.55
23223;BME280;11780;13.904;100.620;2023-07-13T13:06:43;100748.16;;;32.62;65.57
23223;BME280;11780;13.904;100.620;2023-07-13T13:09:15;100746.00;;;32.68;65.30
23223;BME280;11780;13.904;100.620;2023-07-13T13:11:46;100749.63;;;32.80;65.22
23223;BME280;11780;13.904;100.620;2023-07-13T13:14:16;100758.03;;;32.63;65.28
23223;BME280;11780;13.904;100.620;2023-07-13T13:16:48;100762.78;;;32.62;65.42
23223;BME280;11780;13.904;100.620;2023-07-13T13:19:21;100765.03;;;32.69;65.07
23223;BME280;11780;13.904;100.620;2023-07-13T13:21:54;100767.31;;;32.67;65.07
23223;BME280;11780;13.904;100.620;2023-07-13T13:24:27;100766.69;;;32.61;65.37
23223;BME280;11780;13.904;100.620;2023-07-13T13:27:00;100776.75;;;32.66;65.34
23223;BME280;11780;13.904;100.620;2023-07-13T13:29:32;100782.59;;;32.73;65.21
23223;BME280;11780;13.904;100.620;2023-07-13T13:32:04;100782.91;;;32.72;65.00
23223;BME280;11780;13.904;100.620;2023-07-13T13:34:35;100800.19;;;32.77;65.06
23223;BME280;11780;13.904;100.620;2023-07-13T13:37:17;100807.53;;;32.73;65.18
23223;BME280;11780;13.904;100.620;2023-07-13T13:39:49;100808.53;;;32.69;65.25
23223;BME280;11780;13.904;100.620;2023-07-13T13:42:34;100813.06;;;32.73;65.18
23223;BME280;11780;13.904;100.620;2023-07-13T13:45:07;100823.13;;;32.78;65.47
23223;BME280;11780;13.904;100.620;2023-07-13T13:47:39;100824.91;;;32.83;65.37
23223;BME280;11780;13.904;100.620;2023-07-13T13:52:45;100837.22;;;32.94;65.15
23223;BME280;11780;13.904;100.620;2023-07-13T13:55:17;100836.78;;;32.92;65.09
23223;BME280;11780;13.904;100.620;2023-07-13T13:57:51;100843.81;;;32.80;65.35
23223;BME280;11780;13.904;100.620;2023-07-13T14:00:21;100843.00;;;32.80;65.66
23223;BME280;11780;13.904;100.620;2023-07-13T14:02:51;100850.50;;;32.79;65.71
23223;BME280;11780;13.904;100.620;2023-07-13T14:05:25;100855.88;;;32.85;65.95